Time;durP1;ratioP1;P1;durP2;ratioP2;P2;SDS_P1;SDS_P2;PMS_P1;PMS_P2;Temp;Humidity;BMP_temperature;BMP_pressure;BME280_temperature;BME280_humidity;BME280_pressure;Samples;Min_cycle;Max_cycle;Signal;HPM_P1;HPM_P2
2022/02/24 10:07:23;;;;;;;;;1.67;1.00;;;;;19.09;58.45;101230.00;5067257;27;45867;-76
2022/02/24 10:09:49;;;;;;;;;1.00;1.00;;;;;19.28;58.08;101212.28;5059676;27;45458;-74
2022/02/24 10:12:17;;;;;;;;;3.00;1.25;;;;;19.55;58.04;101206.44;5056849;27;50703;-74
2022/02/24 10:14:42;;;;;;;;;1.00;1.00;;;;;19.83;57.48;101213.97;5054552;28;45623;-76
2022/02/24 10:17:07;;;;;;;;;2.00;2.00;;;;;20.17;56.87;101219.16;5051408;27;47293;-75
2022/02/24 10:19:47;;;;;;;;;1.67;1.67;;;;;20.52;56.60;101215.19;5055586;27;45412;-74
2022/02/24 10:22:26;;;;;;;;;5.33;1.67;;;;;20.88;55.38;101227.38;5050632;27;46903;-74
2022/02/24 10:24:58;;;;;;;;;2.00;2.00;;;;;21.19;55.42;101217.34;5050703;27;54041;-74
2022/02/24 10:27:28;;;;;;;;;3.00;1.33;;;;;21.47;54.43;101216.63;5059241;27;46150;-73
2022/02/24 10:30:19;;;;;;;;;3.00;1.33;;;;;21.77;53.69;101203.09;5059635;27;45408;-72
2022/02/24 10:32:46;;;;;;;;;2.00;2.00;;;;;22.02;53.79;101203.47;5054138;27;45540;-73
2022/02/24 10:35:22;;;;;;;;;2.00;2.00;;;;;22.25;52.83;101195.84;5052032;27;45477;-73
2022/02/24 10:38:01;;;;;;;;;2.00;2.00;;;;;22.48;52.94;101209.81;5056547;27;45554;-76
2022/02/24 10:40:31;;;;;;;;;3.00;1.33;;;;;22.69;52.27;101205.19;5047176;28;45558;-73
2022/02/24 10:43:27;;;;;;;;;2.00;2.00;;;;;22.87;52.15;101206.06;5049924;27;47120;-75
2022/02/24 10:46:03;;;;;;;;;2.33;2.33;;;;;23.08;51.19;101207.63;5053297;28;45536;-76
2022/02/24 10:48:30;;;;;;;;;1.00;1.00;;;;;23.25;50.79;101218.59;5054566;27;46533;-77
2022/02/24 10:50:56;;;;;;;;;2.33;2.00;;;;;23.42;50.60;101219.63;5056433;27;45694;-78
2022/02/24 10:53:27;;;;;;;;;2.00;2.00;;;;;23.59;50.23;101217.06;5050848;27;45514;-76
2022/02/24 10:55:59;;;;;;;;;2.33;2.33;;;;;23.74;49.93;101220.06;5050565;28;45419;-77
2022/02/24 10:58:25;;;;;;;;;3.00;3.00;;;;;23.88;49.65;101205.91;5049191;27;46110;-78
2022/02/24 11:01:05;;;;;;;;;1.67;1.00;;;;;24.04;49.35;101220.56;5052206;27;46149;-76
2022/02/24 11:03:31;;;;;;;;;3.00;1.33;;;;;24.16;48.53;101215.75;5047187;27;46147;-79
2022/02/24 11:05:59;;;;;;;;;3.00;3.00;;;;;24.24;48.35;101215.81;5048910;27;45921;-79
2022/02/24 11:08:26;;;;;;;;;2.00;2.00;;;;;24.33;48.54;101217.53;5055250;27;46373;-77
2022/02/24 11:10:54;;;;;;;;;2.00;2.00;;;;;24.46;48.57;101210.81;5051983;27;46665;-78
2022/02/24 11:13:20;;;;;;;;;2.33;1.67;;;;;24.54;48.24;101200.00;5037931;27;45448;-78
2022/02/24 11:15:46;;;;;;;;;4.00;2.67;;;;;24.66;48.22;101197.81;5051865;27;45671;-78
2022/02/24 11:18:13;;;;;;;;;1.00;1.00;;;;;24.78;48.15;101184.78;5036830;28;45805;-78
2022/02/24 11:20:39;;;;;;;;;3.00;3.00;;;;;24.87;48.15;101174.81;5038592;28;45528;-76
2022/02/24 11:23:06;;;;;;;;;2.00;1.33;;;;;24.96;48.24;101168.38;5040057;28;45348;-76
2022/02/24 11:25:41;;;;;;;;;2.67;2.67;;;;;25.08;47.77;101155.31;5039766;28;45463;-77
2022/02/24 11:28:08;;;;;;;;;2.33;2.33;;;;;25.19;47.61;101147.84;5039178;28;45696;-76
2022/02/24 11:30:34;;;;;;;;;4.00;3.33;;;;;25.29;47.54;101142.25;5043260;28;45435;-77
2022/02/24 11:32:59;;;;;;;;;4.00;3.67;;;;;25.40;47.18;101139.19;5041531;28;45542;-76
2022/02/24 11:35:28;;;;;;;;;5.33;2.67;;;;;25.50;47.10;101133.56;5042145;28;45559;-76
2022/02/24 11:38:14;;;;;;;;;3.00;3.00;;;;;25.61;46.59;101125.06;5047402;28;46071;-76
2022/02/24 11:40:41;;;;;;;;;3.00;3.00;;;;;25.72;46.76;101123.88;5042747;28;45443;-77
2022/02/24 11:43:21;;;;;;;;;4.00;3.00;;;;;25.83;46.57;101129.94;5037745;28;45526;-79
2022/02/24 11:45:57;;;;;;;;;2.00;2.00;;;;;25.81;40.25;101129.25;5058092;28;45488;-78
2022/02/24 11:48:34;;;;;;;;;1.67;1.67;;;;;25.64;38.45;101126.59;5056048;27;45766;-78
2022/02/24 11:51:19;;;;;;;;;1.00;1.00;;;;;25.43;37.40;101119.81;5051519;28;45444;-78
2022/02/24 11:53:49;;;;;;;;;0.00;0.00;;;;;25.16;36.72;101140.88;5043188;28;45492;-78
2022/02/24 11:56:15;;;;;;;;;1.00;1.00;;;;;24.94;36.20;101136.97;5038038;28;45574;-77
2022/02/24 11:59:02;;;;;;;;;1.00;0.67;;;;;24.74;36.18;101137.28;5036004;28;45764;-77
2022/02/24 12:01:32;;;;;;;;;1.00;1.00;;;;;24.53;36.13;101138.59;5037630;28;45522;-78
2022/02/24 12:04:02;;;;;;;;;1.00;1.00;;;;;24.32;35.62;101160.75;5035986;28;45909;-81
2022/02/24 12:06:46;;;;;;;;;1.33;1.33;;;;;24.13;36.53;101161.84;5042257;28;45532;-80
2022/02/24 12:09:17;;;;;;;;;3.33;1.00;;;;;24.04;37.83;101163.63;5038227;28;48146;-80
2022/02/24 12:11:47;;;;;;;;;5.00;3.67;;;;;23.99;38.69;101152.44;5049038;28;45533;-79
2022/02/24 12:14:24;;;;;;;;;3.00;2.00;;;;;23.97;39.20;101154.44;5040152;28;45547;-79
2022/02/24 12:17:03;;;;;;;;;3.67;3.00;;;;;23.93;39.49;101154.78;5042035;28;45411;-81
2022/02/24 12:19:45;;;;;;;;;4.00;3.00;;;;;23.91;39.84;101142.41;5039364;28;46277;-80
2022/02/24 12:22:28;;;;;;;;;4.33;3.33;;;;;23.93;39.51;101146.66;5038972;28;45510;-83
2022/02/24 12:25:23;;;;;;;;;5.33;3.00;;;;;23.89;40.15;101134.41;5041149;28;45800;-78
2022/02/24 12:28:06;;;;;;;;;4.33;4.33;;;;;23.90;40.11;101143.38;5039384;28;45589;-77
2022/02/24 12:30:34;;;;;;;;;3.67;3.67;;;;;23.93;40.05;101149.34;5040884;28;45394;-80
2022/02/24 12:33:12;;;;;;;;;4.67;4.67;;;;;23.90;40.27;101135.25;5053180;28;45486;-79
2022/02/24 12:35:46;;;;;;;;;5.00;4.00;;;;;23.85;40.42;101127.63;5039662;28;45533;-79
2022/02/24 12:38:19;;;;;;;;;3.67;3.00;;;;;23.78;40.43;101119.28;5053209;28;45696;-79
2022/02/24 12:40:55;;;;;;;;;4.00;2.67;;;;;23.75;40.33;101105.22;5038151;28;45381;-79
2022/02/24 12:43:24;;;;;;;;;4.67;4.00;;;;;23.77;40.52;101103.16;5037983;28;45403;-78
2022/02/24 12:45:49;;;;;;;;;4.00;4.00;;;;;23.78;40.66;101094.03;5039379;28;45463;-80
2022/02/24 12:48:16;;;;;;;;;2.67;2.67;;;;;23.78;41.10;101091.31;5039713;28;46274;-82
2022/02/24 12:50:53;;;;;;;;;2.00;2.00;;;;;23.80;41.01;101083.88;5037522;28;46250;-72
2022/02/24 12:53:22;;;;;;;;;3.33;2.00;;;;;23.81;41.05;101072.03;5039962;28;45503;-73
2022/02/24 12:55:51;;;;;;;;;7.67;2.67;;;;;23.87;41.01;101074.09;5040919;28;45523;-71
2022/02/24 12:58:17;;;;;;;;;8.33;7.00;;;;;23.93;40.77;101081.59;5036730;28;45755;-72
2022/02/24 13:00:48;;;;;;;;;9.00;6.00;;;;;23.98;40.90;101082.97;5039723;28;47673;-72
2022/02/24 13:03:14;;;;;;;;;6.00;5.00;;;;;24.04;40.57;101079.59;5034754;28;45681;-72
2022/02/24 13:05:56;;;;;;;;;2.33;2.33;;;;;24.05;40.77;101086.69;5036588;28;45600;-72
2022/02/24 13:11:10;;;;;;;;;4.33;4.33;;;;;24.05;40.15;101082.13;5038902;28;46172;-72
2022/02/24 13:13:36;;;;;;;;;2.00;1.33;;;;;24.05;40.76;101074.00;5043579;28;45490;-71
2022/02/24 13:16:07;;;;;;;;;10.50;2.00;;;;;24.01;40.50;101086.19;5040031;27;45446;-71
2022/02/24 13:18:38;;;;;;;;;4.00;4.00;;;;;24.02;40.57;101089.72;5038366;28;45392;-72
2022/02/24 13:21:05;;;;;;;;;4.00;2.33;;;;;23.98;40.60;101091.94;5042001;28;45651;-72
2022/02/24 13:23:31;;;;;;;;;5.33;3.00;;;;;23.94;40.69;101096.84;5037360;28;46033;-72
2022/02/24 13:25:58;;;;;;;;;3.67;3.33;;;;;23.91;40.87;101107.16;5042036;28;45513;-73
2022/02/24 13:28:31;;;;;;;;;7.33;4.33;;;;;23.83;40.79;101102.56;5039450;28;45475;-72
2022/02/24 13:30:57;;;;;;;;;3.00;3.00;;;;;23.77;40.83;101100.47;5043589;28;46209;-73
2022/02/24 13:33:35;;;;;;;;;6.00;4.67;;;;;23.72;41.03;101105.53;5033055;28;45755;-72
2022/02/24 13:36:05;;;;;;;;;2.67;2.67;;;;;23.67;41.04;101106.03;5039071;28;48196;-73
2022/02/24 13:38:42;;;;;;;;;2.00;2.00;;;;;23.64;40.72;101114.47;5033872;28;45532;-72
2022/02/24 13:41:13;;;;;;;;;4.00;2.33;;;;;23.62;40.74;101130.88;5035730;28;45574;-72
2022/02/24 13:43:44;;;;;;;;;1.67;1.67;;;;;23.62;41.18;101122.75;5034645;28;45467;-73
2022/02/24 13:46:10;;;;;;;;;3.00;3.00;;;;;23.62;41.17;101143.59;5045797;28;45463;-73
2022/02/24 13:48:41;;;;;;;;;3.00;1.33;;;;;23.57;41.29;101146.75;5043083;28;45579;-73
2022/02/24 13:51:08;;;;;;;;;2.67;2.00;;;;;23.57;41.26;101173.84;5042687;28;46638;-73
2022/02/24 13:53:35;;;;;;;;;1.00;1.00;;;;;23.55;41.37;101194.84;5044526;28;45699;-73
2022/02/24 13:56:13;;;;;;;;;2.67;2.67;;;;;23.54;41.31;101267.13;5045813;28;45597;-73
2022/02/24 13:58:41;;;;;;;;;2.00;2.00;;;;;23.59;41.11;101247.72;5041894;28;45824;-72
2022/02/24 14:01:18;;;;;;;;;2.33;2.33;;;;;23.59;41.27;101239.59;5044023;28;45558;-73
2022/02/24 14:03:45;;;;;;;;;1.00;1.00;;;;;23.57;41.24;101235.34;5051874;28;45460;-73
2022/02/24 14:06:16;;;;;;;;;2.00;2.00;;;;;23.50;41.45;101246.78;5041814;28;45443;-73
2022/02/24 14:08:57;;;;;;;;;4.33;3.00;;;;;23.46;41.55;101245.38;5043777;28;45420;-75
2022/02/24 14:11:33;;;;;;;;;1.33;1.33;;;;;23.45;41.99;101240.97;5042747;28;46412;-76
2022/02/24 14:14:01;;;;;;;;;2.67;2.67;;;;;23.47;41.84;101243.53;5048852;28;45523;-76
2022/02/24 14:16:28;;;;;;;;;2.00;2.00;;;;;23.46;41.93;101250.81;5044477;28;45529;-77
2022/02/24 14:18:53;;;;;;;;;1.33;1.33;;;;;23.50;42.51;101252.19;5037884;28;45572;-78
2022/02/24 14:21:21;;;;;;;;;5.67;4.00;;;;;23.52;42.29;101263.75;5034814;28;46225;-78
2022/02/24 14:23:47;;;;;;;;;3.67;2.00;;;;;23.55;42.27;101262.59;5043147;28;46277;-77
2022/02/24 14:26:13;;;;;;;;;3.00;1.33;;;;;23.59;42.54;101257.69;5036002;28;45467;-78
2022/02/24 14:28:40;;;;;;;;;3.00;2.00;;;;;23.62;42.37;101251.97;5039741;28;45774;-78
2022/02/24 14:31:07;;;;;;;;;0.00;0.00;;;;;23.64;42.47;101248.09;5036833;28;46016;-77
2022/02/24 14:33:37;;;;;;;;;2.67;2.67;;;;;23.71;42.32;101253.75;5036424;28;45423;-77
2022/02/24 14:36:03;;;;;;;;;2.33;2.33;;;;;23.76;42.49;101272.22;5038129;28;45695;-79
2022/02/24 14:38:29;;;;;;;;;3.33;3.00;;;;;23.77;42.29;101280.19;5038723;28;45597;-79
2022/02/24 14:40:55;;;;;;;;;5.00;3.00;;;;;23.76;42.34;101281.22;5035625;28;46169;-79
2022/02/24 14:43:20;;;;;;;;;3.00;1.33;;;;;23.79;42.54;101299.84;5046052;28;45676;-78
2022/02/24 14:45:47;;;;;;;;;2.00;1.00;;;;;23.84;42.62;101290.41;5048266;28;45432;-78
2022/02/24 14:48:14;;;;;;;;;5.00;2.00;;;;;23.84;42.38;101288.56;5054494;28;45616;-81
2022/02/24 14:50:40;;;;;;;;;1.33;1.33;;;;;23.88;41.92;101294.50;5049351;28;48380;-79
2022/02/24 14:53:06;;;;;;;;;2.33;2.33;;;;;23.92;42.25;101312.16;5044470;28;45516;-79
2022/02/24 14:55:32;;;;;;;;;2.00;1.00;;;;;23.91;41.84;101315.91;5046178;28;45554;-77
2022/02/24 14:57:57;;;;;;;;;5.33;4.00;;;;;23.90;41.99;101314.16;5045172;28;45911;-77
2022/02/24 15:00:23;;;;;;;;;6.33;2.00;;;;;23.88;42.21;101314.34;5045947;28;46449;-77
2022/02/24 15:02:49;;;;;;;;;2.67;1.00;;;;;23.85;42.22;101300.22;5038112;28;45469;-78
2022/02/24 15:05:18;;;;;;;;;3.33;1.00;;;;;23.86;42.59;101291.94;5057472;28;45687;-77
2022/02/24 15:07:44;;;;;;;;;4.67;1.33;;;;;23.87;42.54;101296.34;5047427;28;45382;-79
2022/02/24 15:10:11;;;;;;;;;3.33;3.00;;;;;23.91;42.26;101292.31;5043657;28;45727;-79
2022/02/24 15:12:37;;;;;;;;;2.67;2.67;;;;;23.96;42.32;101302.72;5047205;28;45428;-80
2022/02/24 15:15:04;;;;;;;;;1.00;1.00;;;;;24.01;42.80;101294.97;5049189;28;45601;-79
2022/02/24 15:17:29;;;;;;;;;2.00;1.33;;;;;24.11;42.58;101299.47;5069424;27;45505;-79
2022/02/24 15:19:55;;;;;;;;;1.33;1.33;;;;;24.16;42.53;101306.09;5057105;28;46943;-76
2022/02/24 15:22:21;;;;;;;;;0.00;0.00;;;;;24.23;42.72;101303.59;5047944;28;45359;-76
2022/02/24 15:24:47;;;;;;;;;1.00;1.00;;;;;24.27;42.68;101291.41;5043847;28;45513;-78
2022/02/24 15:27:12;;;;;;;;;1.00;1.00;;;;;24.38;42.55;101305.72;5048374;28;45443;-77
2022/02/24 15:29:37;;;;;;;;;0.00;0.00;;;;;24.47;42.61;101307.47;5050816;28;46171;-77
2022/02/24 15:32:03;;;;;;;;;1.67;1.33;;;;;24.53;42.53;101316.81;5068029;27;47415;-77
2022/02/24 15:34:28;;;;;;;;;2.00;1.00;;;;;24.62;42.32;101315.84;5041183;28;45451;-74
2022/02/24 15:36:54;;;;;;;;;2.00;1.33;;;;;24.70;42.33;101302.34;5048583;27;45408;-74
2022/02/24 15:39:19;;;;;;;;;4.00;2.67;;;;;24.80;42.43;101320.34;5037726;28;49531;-77
2022/02/24 15:41:45;;;;;;;;;4.67;2.00;;;;;24.88;42.13;101320.41;5065676;28;45336;-76
2022/02/24 15:44:11;;;;;;;;;3.00;1.00;;;;;24.98;42.41;101317.56;5050623;28;45447;-79
2022/02/24 15:46:36;;;;;;;;;2.00;2.00;;;;;25.04;42.08;101318.75;5050744;28;45470;-78
2022/02/24 15:49:03;;;;;;;;;4.00;3.33;;;;;25.10;42.18;101328.97;5037808;28;47710;-77
2022/02/24 15:51:29;;;;;;;;;5.33;4.00;;;;;25.14;42.11;101333.06;5039121;28;45517;-76
2022/02/24 15:53:54;;;;;;;;;4.33;3.00;;;;;25.20;42.07;101334.25;5034968;28;45460;-77
2022/02/24 15:56:19;;;;;;;;;2.33;0.33;;;;;25.23;42.14;101333.94;5037599;28;45594;-78
2022/02/24 15:58:46;;;;;;;;;2.67;2.67;;;;;25.25;42.13;101334.59;5038914;28;46763;-74
2022/02/24 16:01:11;;;;;;;;;6.67;4.00;;;;;25.22;40.88;101343.94;5041936;28;45635;-75
2022/02/24 16:03:37;;;;;;;;;5.67;3.33;;;;;25.18;41.18;101352.59;5039837;28;45404;-76
2022/02/24 16:06:03;;;;;;;;;4.33;3.00;;;;;25.13;41.47;101362.09;5044249;28;45443;-75
2022/02/24 16:08:31;;;;;;;;;3.00;3.00;;;;;25.10;41.39;101361.56;5039497;28;46024;-76
2022/02/24 16:10:57;;;;;;;;;3.33;2.00;;;;;25.07;41.52;101357.31;5038211;28;45612;-74
2022/02/24 16:13:25;;;;;;;;;3.00;3.00;;;;;25.05;41.57;101358.50;5052245;28;45581;-73
2022/02/24 16:15:50;;;;;;;;;4.67;2.00;;;;;25.03;41.54;101363.22;5060665;27;45694;-73
2022/02/24 16:18:15;;;;;;;;;2.33;1.67;;;;;25.01;41.68;101360.66;5057289;27;45580;-73
2022/02/24 16:20:41;;;;;;;;;5.00;3.00;;;;;24.98;41.58;101359.13;5046087;28;46365;-75
2022/02/24 16:23:06;;;;;;;;;5.33;3.33;;;;;24.96;42.08;101366.59;5053116;27;45384;-76
2022/02/24 16:25:32;;;;;;;;;2.00;2.00;;;;;24.95;42.09;101380.34;5036267;28;45487;-75
2022/02/24 16:27:57;;;;;;;;;1.00;1.00;;;;;24.94;42.01;101397.66;5042415;28;45557;-74
2022/02/24 16:30:22;;;;;;;;;4.00;2.00;;;;;24.93;42.02;101415.78;5049433;28;45399;-75
2022/02/24 16:32:49;;;;;;;;;3.00;2.00;;;;;24.89;41.97;101398.13;5047725;28;45336;-73
2022/02/24 16:35:15;;;;;;;;;4.00;1.00;;;;;24.87;42.12;101413.72;5051042;28;45360;-74
2022/02/24 16:37:41;;;;;;;;;4.33;2.33;;;;;24.85;42.05;101421.19;5049083;28;46295;-74
2022/02/24 16:40:07;;;;;;;;;3.33;1.00;;;;;24.82;42.33;101427.78;5047436;28;45403;-75
2022/02/24 16:42:32;;;;;;;;;5.33;2.00;;;;;24.83;42.23;101439.50;5049621;28;46222;-73
2022/02/24 16:44:57;;;;;;;;;5.00;2.67;;;;;24.83;42.16;101434.06;5047621;28;45553;-73
2022/02/24 16:47:23;;;;;;;;;3.33;2.00;;;;;24.82;42.23;101433.19;5045294;28;45882;-73
2022/02/24 16:49:49;;;;;;;;;4.67;2.00;;;;;24.82;42.14;101438.63;5048433;28;46242;-73
2022/02/24 16:52:15;;;;;;;;;4.00;2.00;;;;;24.80;42.33;101434.38;5046287;28;45820;-72
2022/02/24 16:54:41;;;;;;;;;2.67;2.33;;;;;24.85;41.63;101434.78;5058519;27;45624;-71
2022/02/24 16:57:07;;;;;;;;;1.33;0.67;;;;;24.84;41.14;101444.78;5036906;28;45924;-71
2022/02/24 16:59:35;;;;;;;;;3.00;1.00;;;;;24.84;40.21;101438.47;5040283;28;45528;-70
2022/02/24 17:02:08;;;;;;;;;2.33;2.33;;;;;24.80;40.60;101447.94;5040500;28;47009;-70
2022/02/24 17:04:37;;;;;;;;;2.00;2.00;;;;;24.67;40.71;101451.94;5043730;28;45325;-73
2022/02/24 17:07:04;;;;;;;;;1.00;0.67;;;;;24.56;40.72;101449.50;5026608;28;46523;-72
2022/02/24 17:09:30;;;;;;;;;2.00;0.33;;;;;24.46;41.25;101465.84;5027690;28;45828;-72
2022/02/24 17:11:56;;;;;;;;;1.33;1.00;;;;;24.40;41.19;101470.03;5021165;28;45794;-72
2022/02/24 17:14:21;;;;;;;;;2.00;0.67;;;;;24.30;41.38;101472.00;5018610;28;45411;-72
2022/02/24 17:16:48;;;;;;;;;0.33;0.33;;;;;24.26;41.23;101484.16;5032513;28;46051;-72
2022/02/24 17:19:14;;;;;;;;;3.00;1.00;;;;;24.23;41.43;101495.34;5017158;28;45664;-72
2022/02/24 17:21:40;;;;;;;;;0.00;0.00;;;;;24.17;40.95;101496.78;5024346;28;45510;-72
2022/02/24 17:24:07;;;;;;;;;1.00;1.00;;;;;24.14;40.96;101507.94;5021574;28;45524;-72
2022/02/24 17:26:33;;;;;;;;;0.00;0.00;;;;;24.10;41.53;101504.69;5027486;28;45986;-72
2022/02/24 17:29:00;;;;;;;;;1.67;0.33;;;;;24.07;41.62;101504.97;5026773;28;45677;-72
2022/02/24 17:31:30;;;;;;;;;2.00;0.00;;;;;24.02;41.90;101510.84;5038112;28;45470;-71
2022/02/24 17:33:56;;;;;;;;;5.00;2.00;;;;;23.94;41.19;101518.91;5022874;28;45450;-75
2022/02/24 17:36:21;;;;;;;;;6.33;1.67;;;;;23.95;41.35;101521.47;5021576;28;46225;-73
2022/02/24 17:38:47;;;;;;;;;6.00;3.00;;;;;23.93;41.57;101528.91;5020265;28;45586;-75
2022/02/24 17:41:12;;;;;;;;;4.00;2.33;;;;;23.98;41.41;101536.56;5017402;28;49292;-76
2022/02/24 17:43:37;;;;;;;;;3.00;3.00;;;;;24.07;41.73;101542.91;5019298;28;45622;-75
2022/02/24 17:46:04;;;;;;;;;4.67;3.00;;;;;24.19;41.73;101554.44;5017491;28;45823;-76
2022/02/24 17:48:31;;;;;;;;;4.00;2.33;;;;;24.26;41.71;101566.41;5017584;28;45951;-75
2022/02/24 17:50:56;;;;;;;;;3.00;3.00;;;;;24.32;41.85;101579.34;5015867;28;45618;-74
2022/02/24 17:53:22;;;;;;;;;0.33;0.33;;;;;24.39;41.62;101576.84;5014119;28;45766;-74
2022/02/24 17:55:47;;;;;;;;;2.33;2.33;;;;;24.43;41.61;101589.13;5018116;28;45606;-73
2022/02/24 17:58:13;;;;;;;;;4.33;3.00;;;;;24.46;41.72;101593.38;5030272;28;45568;-75
2022/02/24 18:00:38;;;;;;;;;2.33;1.67;;;;;24.46;41.71;101598.81;5023601;28;45693;-75
2022/02/24 18:03:04;;;;;;;;;3.00;2.33;;;;;24.43;41.80;101609.97;5028682;28;45577;-75
2022/02/24 18:05:30;;;;;;;;;3.33;3.33;;;;;24.40;41.84;101608.41;5048051;27;47167;-75
2022/02/24 18:07:56;;;;;;;;;3.67;1.33;;;;;24.39;41.97;101622.16;5047084;28;45388;-75
2022/02/24 18:10:26;;;;;;;;;3.00;1.00;;;;;24.39;42.10;101622.16;5047852;27;45883;-75
2022/02/24 18:12:51;;;;;;;;;2.33;1.67;;;;;24.38;42.46;101624.00;5044887;28;45398;-75
2022/02/24 18:15:17;;;;;;;;;3.33;1.00;;;;;24.41;42.15;101620.13;5040851;28;47041;-76
2022/02/24 18:17:44;;;;;;;;;6.67;2.00;;;;;24.44;42.18;101627.97;5045592;28;46093;-75
2022/02/24 18:20:10;;;;;;;;;3.33;1.00;;;;;24.44;42.12;101634.22;5045306;28;45422;-75
2022/02/24 19:45:28;;;;;;;;;6.00;4.25;;;;;19.09;48.43;101774.38;5067553;27;46451;-72
2022/02/24 19:47:53;;;;;;;;;5.00;3.25;;;;;19.18;48.87;101777.38;5064487;28;45540;-73
2022/02/24 19:50:18;;;;;;;;;4.75;1.75;;;;;19.35;48.75;101787.75;5061953;28;45632;-72
2022/02/24 19:52:44;;;;;;;;;3.00;3.00;;;;;19.58;48.62;101789.66;5067926;28;45439;-72
2022/02/24 19:55:09;;;;;;;;;3.33;2.33;;;;;19.81;48.27;101798.66;5061624;28;45572;-72
2022/02/24 19:57:35;;;;;;;;;2.33;2.33;;;;;20.07;48.24;101809.28;5064357;28;45578;-72
2022/02/24 20:00:01;;;;;;;;;2.00;1.00;;;;;20.32;48.17;101806.50;5062235;28;49214;-72
2022/02/24 20:02:27;;;;;;;;;2.67;2.67;;;;;20.55;47.54;101807.38;5062604;28;45598;-73
2022/02/24 20:04:52;;;;;;;;;2.00;2.00;;;;;20.78;47.02;101813.63;5061886;28;45531;-75
2022/02/24 20:07:17;;;;;;;;;4.67;3.00;;;;;20.99;47.01;101809.31;5064220;28;46451;-74
2022/02/24 20:09:43;;;;;;;;;2.00;2.00;;;;;21.20;46.81;101812.09;5062271;28;45751;-75
2022/02/24 20:12:09;;;;;;;;;2.00;2.00;;;;;21.42;46.99;101821.13;5065339;27;45479;-75
2022/02/24 20:14:34;;;;;;;;;4.67;2.00;;;;;21.64;46.22;101830.97;5064509;28;45494;-75
2022/02/24 20:17:00;;;;;;;;;3.00;2.00;;;;;21.81;46.49;101839.53;5069834;27;45346;-75
2022/02/24 20:19:31;;;;;;;;;3.00;3.00;;;;;21.98;45.95;101843.50;5065537;28;45497;-76
2022/02/24 20:21:59;;;;;;;;;3.33;2.00;;;;;22.14;46.16;101853.84;5062887;28;45763;-75
2022/02/24 20:24:25;;;;;;;;;5.00;3.33;;;;;22.29;46.16;101857.09;5061658;27;45434;-74
2022/02/24 20:26:50;;;;;;;;;5.67;3.00;;;;;22.42;46.00;101861.41;5065303;28;48939;-75
2022/02/24 20:29:16;;;;;;;;;4.00;3.00;;;;;22.54;45.37;101871.19;5063520;28;46233;-75
2022/02/24 20:31:41;;;;;;;;;4.00;2.67;;;;;22.64;45.33;101858.56;5064124;28;45562;-75
2022/02/24 20:34:06;;;;;;;;;2.00;2.00;;;;;22.76;44.99;101862.03;5062508;28;46531;-76
2022/02/24 20:36:33;;;;;;;;;5.00;4.00;;;;;22.92;45.11;101867.94;5064325;28;45603;-77
2022/02/24 20:38:58;;;;;;;;;1.00;1.00;;;;;23.08;44.68;101872.81;5064981;27;45545;-76
2022/02/24 20:41:24;;;;;;;;;2.00;2.00;;;;;23.24;44.78;101864.16;5066522;28;45649;-76
2022/02/24 20:43:49;;;;;;;;;2.67;1.00;;;;;23.37;44.78;101866.63;5067779;28;45479;-77
2022/02/24 20:46:15;;;;;;;;;1.67;1.67;;;;;23.52;44.44;101870.66;5059320;28;49011;-75
2022/02/24 20:48:40;;;;;;;;;2.00;2.00;;;;;23.64;44.18;101874.09;5064189;28;45462;-74
2022/02/24 20:51:05;;;;;;;;;3.67;3.00;;;;;23.68;44.23;101880.09;5061727;28;45541;-74
2022/02/24 20:53:31;;;;;;;;;2.33;2.33;;;;;23.72;44.17;101884.22;5068363;28;46392;-73
2022/02/24 20:55:56;;;;;;;;;2.33;2.33;;;;;23.75;43.72;101893.94;5054468;28;45423;-75
2022/02/24 20:58:22;;;;;;;;;3.33;2.00;;;;;23.76;43.95;101882.94;5044328;28;45495;-73
2022/02/24 21:00:48;;;;;;;;;4.00;3.67;;;;;23.82;43.96;101895.94;5048413;28;45525;-73
2022/02/24 21:03:13;;;;;;;;;2.00;2.00;;;;;23.86;44.12;101904.63;5048878;28;45501;-74
2022/02/24 21:05:38;;;;;;;;;2.33;2.33;;;;;23.91;43.86;101907.75;5050405;28;45391;-73
2022/02/24 21:08:05;;;;;;;;;2.33;2.33;;;;;23.93;43.74;101905.78;5044327;28;45601;-73
2022/02/24 21:10:30;;;;;;;;;2.00;2.00;;;;;23.97;44.08;101905.47;5051824;28;45648;-77
2022/02/24 21:12:56;;;;;;;;;2.33;2.33;;;;;24.00;44.03;101910.63;5050097;28;45710;-75
2022/02/24 21:15:21;;;;;;;;;2.00;2.00;;;;;24.07;43.56;101919.88;5050741;28;45533;-78
2022/02/24 21:17:46;;;;;;;;;4.00;3.00;;;;;24.10;43.57;101913.38;5049989;28;45553;-78
2022/02/24 21:20:13;;;;;;;;;1.00;1.00;;;;;24.13;43.67;101921.19;5051477;28;45467;-77
2022/02/24 21:22:38;;;;;;;;;1.33;1.33;;;;;24.13;43.56;101919.34;5047660;28;45565;-74
2022/02/24 21:25:04;;;;;;;;;2.00;2.00;;;;;24.16;43.49;101924.47;5050562;28;45564;-74
2022/02/24 21:27:30;;;;;;;;;1.33;1.33;;;;;24.19;44.05;101931.47;5051289;28;45479;-74
2022/02/24 21:29:55;;;;;;;;;2.33;2.33;;;;;24.20;43.82;101930.47;5050294;28;45778;-74
2022/02/24 21:32:21;;;;;;;;;6.00;2.00;;;;;24.22;43.72;101939.31;5049628;28;45736;-74
2022/02/24 21:34:46;;;;;;;;;3.33;3.00;;;;;24.23;43.47;101934.75;5049175;28;45560;-73
2022/02/24 21:37:11;;;;;;;;;2.33;2.00;;;;;24.25;43.77;101939.03;5049629;28;45478;-73
2022/02/24 21:39:37;;;;;;;;;2.67;2.00;;;;;24.27;43.54;101936.19;5050349;28;45526;-73
2022/02/24 21:42:02;;;;;;;;;1.00;1.00;;;;;24.28;43.57;101946.88;5049067;28;46224;-76
2022/02/24 21:44:28;;;;;;;;;2.00;2.00;;;;;24.29;43.39;101945.91;5049358;28;45529;-75
2022/02/24 21:46:54;;;;;;;;;3.67;3.33;;;;;24.31;43.46;101945.72;5047934;28;45551;-75
2022/02/24 21:49:19;;;;;;;;;1.67;1.67;;;;;24.31;43.50;101941.16;5047621;28;45666;-74
2022/02/24 21:51:44;;;;;;;;;2.33;2.00;;;;;24.35;43.66;101949.88;5049711;28;46525;-73
2022/02/24 21:54:10;;;;;;;;;3.33;2.00;;;;;24.37;43.40;101949.72;5049420;28;45511;-74
2022/02/24 21:56:36;;;;;;;;;4.00;2.67;;;;;24.38;43.41;101952.31;5050767;28;45832;-74
2022/02/24 21:59:01;;;;;;;;;2.00;2.00;;;;;24.37;43.52;101953.31;5042927;28;45467;-74
2022/02/24 22:01:26;;;;;;;;;3.33;2.00;;;;;24.38;43.32;101954.16;5047323;28;46319;-73
2022/02/24 22:03:52;;;;;;;;;2.00;2.00;;;;;24.39;43.46;101958.59;5039296;28;45995;-73
2022/02/24 22:06:18;;;;;;;;;2.33;2.00;;;;;24.40;43.28;101958.44;5047783;28;45496;-73
2022/02/24 22:08:45;;;;;;;;;2.33;1.00;;;;;24.42;43.66;101963.72;5049255;28;45451;-73
2022/02/24 22:11:11;;;;;;;;;1.33;1.33;;;;;24.43;43.76;101958.16;5046033;28;45579;-73
2022/02/24 22:13:36;;;;;;;;;3.00;2.00;;;;;24.46;43.46;101959.72;5048588;28;45496;-74
2022/02/24 22:16:02;;;;;;;;;3.00;2.00;;;;;24.45;43.28;101961.56;5049963;28;46553;-74
2022/02/24 22:18:27;;;;;;;;;3.00;1.33;;;;;24.44;43.36;101965.28;5043212;28;45672;-74
2022/02/24 22:20:52;;;;;;;;;2.67;2.67;;;;;24.45;43.21;101971.56;5048541;28;57834;-76
2022/02/24 22:23:18;;;;;;;;;2.00;2.00;;;;;24.44;43.07;101972.56;5051588;28;46995;-76
2022/02/24 22:25:44;;;;;;;;;4.33;3.00;;;;;24.43;43.50;101974.44;5052007;28;46326;-77
2022/02/24 22:28:09;;;;;;;;;2.67;2.67;;;;;24.43;43.27;101974.44;5052756;28;45513;-75
2022/02/24 22:30:34;;;;;;;;;1.67;1.67;;;;;24.43;43.23;101981.69;5050252;28;45423;-76
2022/02/24 22:33:00;;;;;;;;;3.00;2.00;;;;;24.42;43.44;101982.72;5050089;28;45502;-77
2022/02/24 22:35:25;;;;;;;;;3.00;3.00;;;;;24.44;43.34;101988.88;5052212;28;45449;-74
2022/02/24 22:37:50;;;;;;;;;3.00;3.00;;;;;24.44;43.46;101991.56;5051434;28;45552;-75
2022/02/24 22:40:16;;;;;;;;;2.00;2.00;;;;;24.45;43.15;101988.69;5049473;28;46495;-75
2022/02/24 22:42:41;;;;;;;;;5.67;2.67;;;;;24.46;43.48;102001.28;5048885;28;45525;-74
2022/02/24 22:45:07;;;;;;;;;2.00;1.67;;;;;24.43;43.41;101996.13;5049901;28;45599;-75
2022/02/24 22:47:33;;;;;;;;;2.33;2.33;;;;;24.45;43.25;102002.25;5050181;28;45435;-74
2022/02/24 22:49:58;;;;;;;;;4.33;3.00;;;;;24.44;43.09;101997.84;5050969;28;46233;-74
2022/02/24 22:52:23;;;;;;;;;3.00;1.67;;;;;24.44;43.76;101997.00;5047622;28;46500;-74
2022/02/24 22:54:49;;;;;;;;;3.67;2.00;;;;;24.45;43.17;102001.44;5047258;28;46771;-74
2022/02/24 22:57:14;;;;;;;;;1.33;1.00;;;;;24.42;43.22;102001.69;5046022;28;46814;-75
2022/02/24 22:59:40;;;;;;;;;5.00;1.00;;;;;24.44;43.41;101999.72;5042166;28;46701;-76